createdAt,value
2022-10-23T00:02:45.980Z,15.12
2022-10-23T00:07:43.516Z,15.19
2022-10-23T00:12:40.376Z,15.06
2022-10-23T00:17:37.902Z,14.97
2022-10-23T00:22:34.769Z,14.74
2022-10-23T00:27:35.246Z,14.82
2022-10-23T00:37:29.187Z,14.58
2022-10-23T00:42:25.689Z,14.50
2022-10-23T00:47:23.095Z,14.60
2022-10-23T00:52:19.805Z,14.45
2022-10-23T00:57:16.799Z,14.43
2022-10-23T01:02:14.645Z,14.48
2022-10-23T01:07:15.312Z,14.32
2022-10-23T01:12:16.075Z,14.28
2022-10-23T01:17:16.755Z,13.96
2022-10-23T01:22:21.971Z,14.05
2022-10-23T01:27:21.535Z,14.15
2022-10-23T01:32:23.093Z,13.79
2022-10-23T01:37:24.236Z,13.84
2022-10-23T01:42:24.336Z,13.63
2022-10-23T01:47:25.744Z,13.56
2022-10-23T01:52:31.627Z,13.47
2022-10-23T01:57:30.042Z,13.43
2022-10-23T02:02:27.976Z,13.59
2022-10-23T02:07:27.481Z,13.69
2022-10-23T02:12:29.620Z,13.96
2022-10-23T02:17:31.511Z,14.14
2022-10-23T02:22:30.403Z,13.82
2022-10-23T02:27:30.902Z,14.10
2022-10-23T02:32:28.827Z,14.38
2022-10-23T02:37:25.621Z,14.49
2022-10-23T02:42:26.328Z,14.51
2022-10-23T02:47:32.400Z,14.49
2022-10-23T02:52:33.054Z,14.30
2022-10-23T02:57:32.579Z,14.31
2022-10-23T03:02:35.751Z,14.11
2022-10-23T03:07:33.297Z,14.16
2022-10-23T03:12:35.096Z,14.24
2022-10-23T03:17:33.767Z,14.30
2022-10-23T03:22:30.590Z,14.49
2022-10-23T03:32:34.544Z,14.27
2022-10-23T03:37:31.120Z,14.38
2022-10-23T03:42:27.815Z,14.47
2022-10-23T03:47:24.858Z,14.76
2022-10-23T03:52:22.251Z,15.04
2022-10-23T03:57:20.687Z,15.32
2022-10-23T04:02:17.719Z,15.33
2022-10-23T04:07:14.473Z,15.40
2022-10-23T04:12:11.714Z,15.55
2022-10-23T04:17:08.437Z,15.56
2022-10-23T04:22:04.936Z,15.45
2022-10-23T04:27:03.304Z,15.59
2022-10-23T04:32:00.544Z,15.60
2022-10-23T04:36:58.198Z,15.55
2022-10-23T04:41:54.879Z,15.64
2022-10-23T04:46:55.029Z,15.63
2022-10-23T04:51:54.279Z,15.58
2022-10-23T04:57:09.497Z,15.55
2022-10-23T05:02:23.893Z,15.61
2022-10-23T05:07:22.693Z,15.69
2022-10-23T05:12:31.312Z,15.56
2022-10-23T05:17:30.216Z,15.57
2022-10-23T05:22:29.775Z,15.67
2022-10-23T05:27:27.680Z,15.61
2022-10-23T05:32:27.509Z,15.56
2022-10-23T05:37:24.764Z,15.67
2022-10-23T05:42:32.389Z,15.65
2022-10-23T05:47:30.893Z,15.62
2022-10-23T05:52:30.249Z,15.67
2022-10-23T05:57:57.074Z,15.82
2022-10-23T06:03:32.104Z,15.97
2022-10-23T06:08:35.394Z,16.10
2022-10-23T06:13:33.913Z,16.12
2022-10-23T06:18:30.490Z,16.13
2022-10-23T06:23:37.073Z,16.27
2022-10-23T06:28:49.173Z,16.45
2022-10-23T06:33:46.362Z,16.64
2022-10-23T06:38:46.068Z,16.71
2022-10-23T06:43:43.603Z,16.92
2022-10-23T06:48:46.204Z,17.03
2022-10-23T06:53:50.006Z,17.21
2022-10-23T06:59:09.596Z,17.06
2022-10-23T07:04:08.477Z,17.05
2022-10-23T07:09:05.260Z,17.28
2022-10-23T07:14:20.043Z,17.28
2022-10-23T07:19:18.795Z,17.60
2022-10-23T07:24:41.632Z,17.63
2022-10-23T07:29:49.935Z,17.78
2022-10-23T07:34:47.827Z,17.98
2022-10-23T07:39:57.894Z,18.17
2022-10-23T07:44:55.881Z,18.34
2022-10-23T07:49:55.158Z,18.48
2022-10-23T07:54:52.002Z,18.52
2022-10-23T07:59:50.394Z,18.66
2022-10-23T08:04:55.903Z,18.81
2022-10-23T08:10:05.307Z,18.91
2022-10-23T08:15:03.939Z,18.92
2022-10-23T08:20:13.020Z,19.13
2022-10-23T08:25:14.034Z,19.25
2022-10-23T08:30:11.790Z,19.34
2022-10-23T08:35:09.103Z,19.39
2022-10-23T08:40:14.125Z,19.53
2022-10-23T08:45:36.223Z,19.60
2022-10-23T08:50:43.703Z,19.85
2022-10-23T08:55:44.793Z,19.81
2022-10-23T09:00:42.099Z,19.86
2022-10-23T09:06:26.128Z,19.96
2022-10-23T09:11:27.940Z,20.22
2022-10-23T09:16:30.904Z,20.15
2022-10-23T09:21:28.156Z,20.31
2022-10-23T09:26:25.741Z,20.48
2022-10-23T09:31:22.810Z,20.59
2022-10-23T09:36:20.630Z,20.65
2022-10-23T09:41:19.457Z,20.73
2022-10-23T09:46:18.961Z,20.87
2022-10-23T09:51:20.177Z,20.86
2022-10-23T09:56:25.038Z,21.08
2022-10-23T10:01:26.939Z,21.04
2022-10-23T10:06:33.574Z,21.21
2022-10-23T10:11:34.657Z,21.35
2022-10-23T10:16:37.054Z,21.41
2022-10-23T10:21:41.564Z,21.41
2022-10-23T10:26:43.453Z,21.58
2022-10-23T10:31:50.676Z,21.63
2022-10-23T10:36:54.640Z,21.77
2022-10-23T10:41:58.116Z,21.78
2022-10-23T10:46:57.056Z,21.84
2022-10-23T10:52:19.171Z,22.05
2022-10-23T10:57:21.807Z,22.11
2022-10-23T11:02:26.109Z,22.17
2022-10-23T11:07:25.904Z,22.09
2022-10-23T11:12:24.329Z,22.01
2022-10-23T11:17:25.350Z,21.94
2022-10-23T11:22:26.011Z,22.18
2022-10-23T11:27:28.084Z,22.12
2022-10-23T11:32:37.855Z,22.22
2022-10-23T11:37:34.728Z,22.35
2022-10-23T11:42:33.535Z,22.20
2022-10-23T11:47:39.533Z,22.36
2022-10-23T11:52:45.531Z,22.37
2022-10-23T11:58:05.130Z,22.33
2022-10-23T12:03:03.018Z,22.67
2022-10-23T12:08:01.115Z,22.61
2022-10-23T12:12:59.091Z,22.51
2022-10-23T12:18:08.842Z,22.70
2022-10-23T12:23:14.953Z,22.51
2022-10-23T12:28:30.001Z,22.53
2022-10-23T12:33:36.469Z,22.52
2022-10-23T12:38:45.969Z,22.84
2022-10-23T12:43:43.963Z,22.68
2022-10-23T12:48:47.788Z,22.66
2022-10-23T12:53:48.195Z,22.58
2022-10-23T12:58:47.856Z,22.60
2022-10-23T13:03:46.010Z,22.74
2022-10-23T13:08:51.058Z,22.82
2022-10-23T13:14:28.592Z,22.98
2022-10-23T13:19:26.996Z,22.90
2022-10-23T13:24:25.564Z,22.90
2022-10-23T13:34:24.997Z,22.88
2022-10-23T13:39:24.902Z,22.82
2022-10-23T13:44:26.126Z,22.81
2022-10-23T13:49:22.772Z,22.81
2022-10-23T13:54:23.194Z,22.70
2022-10-23T13:59:21.025Z,22.86
2022-10-23T14:04:18.916Z,22.93
2022-10-23T14:09:17.757Z,22.96
2022-10-23T14:14:14.451Z,22.76
2022-10-23T14:19:11.870Z,22.91
2022-10-23T14:24:08.750Z,22.85
2022-10-23T14:29:09.826Z,22.97
2022-10-23T14:34:14.350Z,22.69
2022-10-23T14:39:11.050Z,22.87
2022-10-23T14:44:07.773Z,22.83
2022-10-23T14:49:04.543Z,22.75
2022-10-23T14:54:03.168Z,22.59
2022-10-23T14:59:02.343Z,22.57
2022-10-23T15:03:59.703Z,22.48
2022-10-23T15:08:56.411Z,22.51
2022-10-23T15:13:54.224Z,22.41
2022-10-23T15:18:51.320Z,21.82
2022-10-23T15:23:48.162Z,21.98
2022-10-23T15:28:44.838Z,22.00
2022-10-23T15:33:42.301Z,21.63
2022-10-23T15:38:39.053Z,21.72
2022-10-23T15:43:35.902Z,21.60
2022-10-23T15:48:32.720Z,21.54
2022-10-23T15:53:30.074Z,21.49
2022-10-23T15:58:26.775Z,21.41
2022-10-23T16:03:23.847Z,21.48
2022-10-23T16:08:20.678Z,21.25
2022-10-23T16:13:19.390Z,21.17
2022-10-23T16:18:17.490Z,21.15
2022-10-23T16:23:14.148Z,21.03
2022-10-23T16:28:10.820Z,20.87
2022-10-23T16:33:08.462Z,20.87
2022-10-23T16:38:05.023Z,20.48
2022-10-23T16:43:01.617Z,20.45
2022-10-23T16:48:22.510Z,20.21
2022-10-23T16:53:19.256Z,20.22
2022-10-23T16:58:18.357Z,20.19
2022-10-23T17:03:45.659Z,20.28
2022-10-23T17:08:42.590Z,19.67
2022-10-23T17:13:40.099Z,19.58
2022-10-23T17:18:39.874Z,19.71
2022-10-23T17:23:41.227Z,19.67
2022-10-23T17:28:41.039Z,19.58
2022-10-23T17:33:37.783Z,19.57
2022-10-23T17:38:35.265Z,19.52
2022-10-23T17:43:33.161Z,19.46
2022-10-23T17:48:33.699Z,19.54
2022-10-23T17:53:30.658Z,19.46
2022-10-23T17:58:27.367Z,19.18
2022-10-23T18:03:24.749Z,19.22
2022-10-23T18:08:21.604Z,19.19
2022-10-23T18:13:18.256Z,19.15
2022-10-23T18:18:17.545Z,19.20
2022-10-23T18:23:15.078Z,19.22
2022-10-23T18:28:11.697Z,18.92
2022-10-23T18:33:08.343Z,19.10
2022-10-23T18:38:05.216Z,19.21
2022-10-23T18:43:02.632Z,18.95
2022-10-23T18:48:02.749Z,18.51
2022-10-23T18:52:59.304Z,18.66
2022-10-23T18:57:56.270Z,18.65
2022-10-23T19:02:53.547Z,18.67
2022-10-23T19:07:50.521Z,18.79
2022-10-23T19:12:48.472Z,18.67
2022-10-23T19:17:46.205Z,18.64
2022-10-23T19:22:44.783Z,18.78
2022-10-23T19:27:42.968Z,18.97
2022-10-23T19:32:39.613Z,18.71
2022-10-23T19:37:38.236Z,18.64
2022-10-23T19:42:36.711Z,18.47
2022-10-23T19:47:33.284Z,18.58
2022-10-23T19:52:31.107Z,18.78
2022-10-23T19:57:29.851Z,19.06
2022-10-23T20:02:27.717Z,19.01
2022-10-23T20:07:24.362Z,19.02
2022-10-23T20:12:21.027Z,19.13
2022-10-23T20:17:17.594Z,19.12
2022-10-23T20:22:15.249Z,19.15
2022-10-23T20:27:14.721Z,19.18
2022-10-23T20:32:11.798Z,19.16
2022-10-23T20:37:08.332Z,19.07
2022-10-23T20:42:06.733Z,18.70
2022-10-23T20:47:03.883Z,18.34
2022-10-23T20:52:03.004Z,17.84
2022-10-23T20:56:59.566Z,17.53
2022-10-23T21:01:57.183Z,17.60
2022-10-23T21:07:09.361Z,17.33
2022-10-23T21:12:07.486Z,16.72
2022-10-23T21:17:04.785Z,17.05
2022-10-23T21:22:01.364Z,17.23
2022-10-23T21:26:58.075Z,17.49
2022-10-23T21:31:55.216Z,17.75
2022-10-23T21:37:12.855Z,18.07
2022-10-23T21:42:09.600Z,17.81
2022-10-23T21:47:06.302Z,17.72
2022-10-23T21:52:04.499Z,17.54
2022-10-23T21:57:02.612Z,17.74
2022-10-23T22:01:59.458Z,17.71
2022-10-23T22:06:57.680Z,17.51
2022-10-23T22:11:54.980Z,17.21
2022-10-23T22:16:52.186Z,17.16
2022-10-23T22:21:50.150Z,17.07
2022-10-23T22:26:47.966Z,17.23
2022-10-23T22:31:49.604Z,16.88
2022-10-23T22:36:46.653Z,17.05
2022-10-23T22:41:43.272Z,17.00
2022-10-23T22:46:40.353Z,16.69
2022-10-23T22:51:38.413Z,16.21
2022-10-23T22:56:35.079Z,16.38
2022-10-23T23:01:33.121Z,16.62
2022-10-23T23:06:30.239Z,16.64
2022-10-23T23:11:27.970Z,16.74
2022-10-23T23:16:27.448Z,16.39
2022-10-23T23:21:24.279Z,16.43
2022-10-23T23:26:23.157Z,16.23
2022-10-23T23:31:21.993Z,16.21
2022-10-23T23:36:19.562Z,16.31
2022-10-23T23:41:17.770Z,16.38
2022-10-23T23:46:14.821Z,16.21
2022-10-23T23:51:12.244Z,16.45
2022-10-23T23:56:10.325Z,16.78
